TimeCST,TemperatureF,Dew PointF,Humidity,Sea Level PressureIn,VisibilityMPH,Wind Direction,Wind SpeedMPH,Gust SpeedMPH,PrecipitationIn,Events,Conditions,WindDirDegrees,DateUTC
12:15 AM,1.6,-1.5,87,30.08,10.0,Calm,Calm,-,N/A,,Clear,0,2013-12-18 06:15:00
12:35 AM,3.0,-0.0,87,30.08,10.0,Calm,Calm,-,N/A,,Clear,0,2013-12-18 06:35:00
12:55 AM,3.0,0.1,88,30.07,10.0,Calm,Calm,-,N/A,,Clear,0,2013-12-18 06:55:00
1:15 AM,4.6,1.6,87,30.09,10.0,Calm,Calm,-,N/A,,Clear,0,2013-12-18 07:15:00
1:35 AM,5.0,1.8,86,30.07,10.0,Calm,Calm,-,N/A,,Clear,0,2013-12-18 07:35:00
1:55 AM,5.5,2.3,86,30.06,10.0,Calm,Calm,-,N/A,,Clear,0,2013-12-18 07:55:00
2:15 AM,5.9,2.7,87,30.04,10.0,East,3.5,-,N/A,,Clear,100,2013-12-18 08:15:00
2:35 AM,6.4,3.2,87,30.05,10.0,Calm,Calm,-,N/A,,Clear,0,2013-12-18 08:35:00
2:55 AM,6.4,3.0,86,30.03,10.0,SE,4.6,-,N/A,,Clear,130,2013-12-18 08:55:00
3:15 AM,5.2,1.9,86,30.03,10.0,ESE,3.5,-,N/A,,Scattered Clouds,120,2013-12-18 09:15:00
3:35 AM,7.7,4.5,87,30.02,10.0,ESE,4.6,-,N/A,,Mostly Cloudy,110,2013-12-18 09:35:00
3:55 AM,8.4,4.8,85,30.02,10.0,SE,3.5,-,N/A,,Overcast,130,2013-12-18 09:55:00
4:15 AM,9.5,5.7,85,30.01,10.0,Calm,Calm,-,N/A,,Overcast,0,2013-12-18 10:15:00
4:35 AM,11.3,6.8,82,29.99,10.0,SSE,6.9,-,N/A,,Overcast,160,2013-12-18 10:35:00
4:55 AM,12.0,7.0,80,29.99,10.0,SSE,6.9,-,N/A,,Overcast,160,2013-12-18 10:55:00
5:15 AM,12.9,6.8,77,29.96,10.0,SE,8.1,-,N/A,,Overcast,130,2013-12-18 11:15:00
5:35 AM,10.8,5.9,81,29.95,10.0,ESE,6.9,-,N/A,,Scattered Clouds,110,2013-12-18 11:35:00
5:55 AM,11.1,6.4,81,29.94,10.0,East,8.1,-,N/A,,Clear,100,2013-12-18 11:55:00
6:15 AM,10.4,6.4,84,29.92,10.0,ESE,6.9,-,N/A,,Scattered Clouds,110,2013-12-18 12:15:00
6:35 AM,12.9,8.6,83,29.90,10.0,SE,10.4,-,N/A,,Mostly Cloudy,130,2013-12-18 12:35:00
6:55 AM,13.5,9.1,83,29.88,10.0,SE,11.5,-,N/A,,Overcast,130,2013-12-18 12:55:00
7:15 AM,14.4,9.9,82,29.86,10.0,SE,10.4,-,N/A,,Mostly Cloudy,130,2013-12-18 13:15:00
7:35 AM,14.9,10.4,82,29.86,10.0,SE,9.2,-,N/A,,Mostly Cloudy,130,2013-12-18 13:35:00
7:55 AM,15.4,10.9,82,29.84,10.0,ESE,11.5,-,N/A,,Overcast,120,2013-12-18 13:55:00
8:15 AM,15.8,11.3,82,29.82,10.0,SE,11.5,-,N/A,,Overcast,130,2013-12-18 14:15:00
8:35 AM,16.2,11.3,81,29.81,10.0,ESE,11.5,-,N/A,,Mostly Cloudy,120,2013-12-18 14:35:00
8:55 AM,16.7,11.7,81,29.79,10.0,SE,12.7,-,N/A,,Scattered Clouds,130,2013-12-18 14:55:00
9:15 AM,19.2,11.8,73,29.78,10.0,SE,11.5,-,N/A,,Clear,130,2013-12-18 15:15:00
9:35 AM,20.1,11.8,70,29.78,10.0,SE,10.4,17.3,N/A,,Clear,140,2013-12-18 15:35:00
9:55 AM,21.7,12.4,67,29.77,10.0,SE,11.5,-,N/A,,Clear,140,2013-12-18 15:55:00
10:15 AM,22.6,13.1,67,29.77,10.0,SSE,12.7,-,N/A,,Clear,150,2013-12-18 16:15:00
10:35 AM,23.4,14.0,67,29.75,10.0,SE,15.0,-,N/A,,Clear,140,2013-12-18 16:35:00
10:55 AM,24.4,14.7,67,29.72,10.0,SSE,15.0,-,N/A,,Clear,150,2013-12-18 16:55:00
11:15 AM,25.7,15.8,66,29.71,10.0,SSE,12.7,19.6,N/A,,Clear,150,2013-12-18 17:15:00
11:35 AM,27.0,16.9,66,29.72,10.0,SSE,10.4,-,N/A,,Clear,160,2013-12-18 17:35:00
11:55 AM,28.2,17.6,64,29.71,10.0,South,10.4,-,N/A,,Clear,170,2013-12-18 17:55:00
12:15 PM,28.8,18.1,65,29.69,10.0,South,9.2,-,N/A,,Clear,170,2013-12-18 18:15:00
12:35 PM,29.3,18.7,65,29.68,10.0,South,9.2,-,N/A,,Clear,170,2013-12-18 18:35:00
12:55 PM,29.8,19.2,65,29.67,10.0,South,12.7,-,N/A,,Clear,190,2013-12-18 18:55:00
1:15 PM,29.3,19.2,66,29.67,10.0,South,8.1,-,N/A,,Clear,180,2013-12-18 19:15:00
1:35 PM,30.6,19.9,65,29.66,10.0,South,4.6,-,N/A,,Clear,190,2013-12-18 19:35:00
1:55 PM,30.9,20.5,65,29.66,10.0,Calm,Calm,-,N/A,,Clear,0,2013-12-18 19:55:00
2:15 PM,31.6,21.0,65,29.67,10.0,SW,6.9,-,N/A,,Clear,220,2013-12-18 20:15:00
2:35 PM,31.6,21.4,66,29.66,10.0,SSW,4.6,-,N/A,,Clear,200,2013-12-18 20:35:00
2:55 PM,31.1,21.6,68,29.66,10.0,SSW,5.8,-,N/A,,Clear,210,2013-12-18 20:55:00
3:15 PM,30.9,21.7,69,29.66,10.0,SSW,4.6,-,N/A,,Clear,210,2013-12-18 21:15:00
3:35 PM,30.4,21.7,70,29.66,10.0,SSW,4.6,-,N/A,,Clear,210,2013-12-18 21:35:00
3:55 PM,27.7,20.8,75,29.67,10.0,South,3.5,-,N/A,,Clear,180,2013-12-18 21:55:00
4:15 PM,24.6,19.2,80,29.66,10.0,SSE,5.8,-,N/A,,Clear,160,2013-12-18 22:15:00
4:35 PM,23.9,18.9,81,29.66,10.0,SSE,6.9,-,N/A,,Clear,150,2013-12-18 22:35:00
4:55 PM,24.4,19.6,82,29.67,10.0,South,5.8,-,N/A,,Clear,170,2013-12-18 22:55:00
5:15 PM,24.1,19.2,82,29.67,10.0,South,3.5,-,N/A,,Clear,180,2013-12-18 23:15:00
5:35 PM,22.5,18.7,85,29.67,10.0,Calm,Calm,-,N/A,,Clear,0,2013-12-18 23:35:00
5:55 PM,21.6,18.0,86,29.68,10.0,Calm,Calm,-,N/A,,Clear,0,2013-12-18 23:55:00
6:15 PM,19.9,16.7,87,29.68,10.0,Calm,Calm,-,N/A,,Clear,0,2013-12-19 00:15:00
6:35 PM,20.8,18.1,89,29.69,10.0,Calm,Calm,-,N/A,,Clear,0,2013-12-19 00:35:00
6:55 PM,18.7,16.5,91,29.69,10.0,Calm,Calm,-,N/A,,Clear,0,2013-12-19 00:55:00
7:15 PM,17.6,16.2,94,29.69,10.0,Calm,Calm,-,N/A,,Clear,0,2013-12-19 01:15:00
7:35 PM,18.5,17.6,96,29.70,10.0,Calm,Calm,-,N/A,,Clear,0,2013-12-19 01:35:00
7:55 PM,16.7,15.8,96,29.71,10.0,Calm,Calm,-,N/A,,Clear,0,2013-12-19 01:55:00
8:15 PM,15.6,14.9,97,29.71,10.0,Calm,Calm,-,N/A,,Clear,0,2013-12-19 02:15:00
8:35 PM,15.1,14.5,98,29.71,10.0,Calm,Calm,-,N/A,,Clear,0,2013-12-19 02:35:00
8:55 PM,16.2,15.8,98,29.72,10.0,Calm,Calm,-,N/A,,Clear,0,2013-12-19 02:55:00
9:15 PM,13.3,12.2,95,29.72,10.0,Calm,Calm,-,N/A,,Clear,0,2013-12-19 03:15:00
9:35 PM,13.3,12.2,95,29.73,10.0,Calm,Calm,-,N/A,,Clear,0,2013-12-19 03:35:00
9:55 PM,13.8,12.7,95,29.75,10.0,Calm,Calm,-,N/A,,Clear,0,2013-12-19 03:55:00
10:15 PM,12.2,11.1,95,29.76,10.0,Calm,Calm,-,N/A,,Clear,0,2013-12-19 04:15:00
10:35 PM,13.1,12.0,95,29.76,10.0,West,3.5,-,N/A,,Clear,280,2013-12-19 04:35:00
10:55 PM,12.2,10.9,95,29.78,10.0,WNW,5.8,-,N/A,,Clear,290,2013-12-19 04:55:00
11:15 PM,22.1,22.1,100,29.79,10.0,WNW,8.1,-,N/A,,Clear,300,2013-12-19 05:15:00
11:35 PM,21.6,21.2,99,29.80,10.0,NW,6.9,-,N/A,,Clear,310,2013-12-19 05:35:00
11:55 PM,21.4,21.0,99,29.81,10.0,NNW,4.6,-,N/A,,Clear,330,2013-12-19 05:55:00